Time;durP1;ratioP1;P1;durP2;ratioP2;P2;SDS_P1;SDS_P2;PMS_P1;PMS_P2;Temp;Humidity;BMP_temperature;BMP_pressure;BME280_temperature;BME280_humidity;BME280_pressure;Samples;Min_cycle;Max_cycle;Signal;HPM_P1;HPM_P2
2023/08/02 03:56:28;;;;;;;4.37;2.60;;;;;;;15.48;100.00;99644.53;5979315;27;20139;-85
2023/08/02 03:59:32;;;;;;;2.45;2.17;;;;;;;15.63;100.00;99651.22;5395901;33;34918;-86
2023/08/02 04:02:35;;;;;;;3.15;2.45;;;;;;;15.79;100.00;99641.63;5383378;33;34111;-86
2023/08/02 04:05:38;;;;;;;3.10;2.50;;;;;;;15.93;100.00;99638.72;5395632;33;34400;-84
2023/08/02 04:08:41;;;;;;;2.55;2.20;;;;;;;16.04;100.00;99638.78;5398141;33;33730;-84
2023/08/02 04:11:44;;;;;;;2.97;2.40;;;;;;;16.16;100.00;99646.12;5395010;33;33815;-85
2023/08/02 04:14:47;;;;;;;2.22;1.98;;;;;;;16.33;100.00;99642.50;5396367;33;33873;-85
2023/08/02 04:17:50;;;;;;;3.53;2.75;;;;;;;16.48;100.00;99646.66;5395019;33;34455;-85
2023/08/02 04:20:52;;;;;;;2.47;2.05;;;;;;;16.57;100.00;99647.16;5394994;33;33691;-84
2023/08/02 04:23:55;;;;;;;4.43;2.30;;;;;;;16.58;100.00;99644.19;5382755;33;33618;-85
2023/08/02 04:26:58;;;;;;;2.30;2.10;;;;;;;16.51;100.00;99647.00;5394513;33;33907;-85
2023/08/02 04:30:01;;;;;;;2.67;2.17;;;;;;;16.48;100.00;99652.91;5395596;33;34847;-85
2023/08/02 04:33:05;;;;;;;2.78;2.22;;;;;;;16.46;100.00;99657.75;5396090;33;33587;-85
2023/08/02 04:36:08;;;;;;;3.45;2.30;;;;;;;16.49;100.00;99651.84;5398021;33;33539;-84
2023/08/02 04:39:11;;;;;;;4.22;2.12;;;;;;;16.62;100.00;99660.88;5394751;33;33587;-85
2023/08/02 04:42:16;;;;;;;5.07;2.45;;;;;;;16.75;100.00;99669.59;5395591;33;34302;-84
2023/08/02 04:45:18;;;;;;;2.92;2.40;;;;;;;16.86;100.00;99664.44;5396706;32;33484;-84
2023/08/02 04:48:22;;;;;;;4.28;2.10;;;;;;;16.94;100.00;99658.66;5396367;33;33526;-84
2023/08/02 04:51:24;;;;;;;3.83;2.70;;;;;;;17.02;100.00;99660.16;5396835;33;34630;-85
2023/08/02 04:54:27;;;;;;;3.85;2.60;;;;;;;17.13;100.00;99659.34;5384981;33;34543;-85
2023/08/02 04:57:30;;;;;;;6.18;3.15;;;;;;;17.22;100.00;99663.34;5399362;32;34985;-84
2023/08/02 05:00:33;;;;;;;4.93;2.90;;;;;;;17.31;100.00;99656.47;5385017;32;33791;-85
2023/08/02 05:03:36;;;;;;;5.72;3.35;;;;;;;17.47;100.00;99649.47;5397112;33;35463;-84
2023/08/02 05:06:40;;;;;;;5.25;3.65;;;;;;;17.63;100.00;99661.47;5398195;33;33843;-84
2023/08/02 05:09:43;;;;;;;4.90;4.20;;;;;;;17.68;100.00;99656.13;5396582;32;35453;-84
2023/08/02 05:12:46;;;;;;;5.32;4.03;;;;;;;17.75;100.00;99650.53;5397001;33;34601;-85
2023/08/02 05:15:49;;;;;;;6.18;4.40;;;;;;;17.86;100.00;99647.78;5396966;32;34591;-84
2023/08/02 05:18:52;;;;;;;5.95;3.60;;;;;;;17.90;100.00;99667.19;5397059;33;33878;-88
2023/08/02 05:21:55;;;;;;;3.83;3.42;;;;;;;17.96;100.00;99670.84;5396726;33;33601;-88
2023/08/02 05:24:58;;;;;;;4.57;3.62;;;;;;;18.11;100.00;99666.53;5397065;33;33810;-89
2023/08/02 05:28:02;;;;;;;5.47;3.80;;;;;;;18.22;100.00;99661.25;5397125;32;33876;-89
2023/08/02 05:31:12;;;;;;;5.10;3.97;;;;;;;18.28;100.00;99663.81;5398383;33;33956;-85
2023/08/02 05:34:15;;;;;;;6.05;3.78;;;;;;;18.34;100.00;99659.28;5398446;33;33358;-85
2023/08/02 05:37:20;;;;;;;5.03;3.72;;;;;;;18.46;100.00;99657.31;5396766;32;33895;-85
2023/08/02 05:40:23;;;;;;;6.03;3.80;;;;;;;18.63;100.00;99662.75;5396693;33;34051;-85
2023/08/02 05:43:25;;;;;;;6.37;3.75;;;;;;;18.74;100.00;99658.31;5397160;32;33591;-85
2023/08/02 05:46:29;;;;;;;4.65;3.72;;;;;;;18.82;100.00;99648.91;5401139;33;33910;-85
2023/08/02 05:49:32;;;;;;;4.37;3.97;;;;;;;18.86;100.00;99663.69;5397014;32;35182;-85
2023/08/02 05:52:35;;;;;;;5.25;4.00;;;;;;;18.91;100.00;99675.50;5398267;32;34586;-85
2023/08/02 05:55:38;;;;;;;5.07;3.35;;;;;;;19.01;100.00;99680.25;5397253;32;34957;-84
2023/08/02 05:58:41;;;;;;;4.95;3.65;;;;;;;19.07;100.00;99670.25;5384489;33;33796;-85
2023/08/02 06:01:44;;;;;;;6.87;4.37;;;;;;;19.22;100.00;99675.94;5397271;33;33829;-85
2023/08/02 06:04:48;;;;;;;5.97;4.00;;;;;;;19.29;100.00;99683.94;5397381;32;33894;-85
2023/08/02 06:07:51;;;;;;;5.85;4.07;;;;;;;19.29;100.00;99681.22;5404928;33;34117;-85
2023/08/02 06:10:54;;;;;;;4.70;4.20;;;;;;;19.33;100.00;99676.91;5398527;33;34096;-85
2023/08/02 06:13:57;;;;;;;7.62;4.10;;;;;;;19.49;100.00;99684.22;5385132;33;33811;-85
2023/08/02 06:17:00;;;;;;;3.72;3.30;;;;;;;19.45;100.00;99685.78;5397004;33;33442;-85
2023/08/02 06:20:03;;;;;;;4.95;3.70;;;;;;;19.46;100.00;99687.47;5398369;33;33973;-85
2023/08/02 06:23:06;;;;;;;4.65;3.50;;;;;;;19.62;100.00;99691.19;5398452;32;33806;-84
2023/08/02 06:26:09;;;;;;;4.20;3.33;;;;;;;19.70;100.00;99699.78;5384338;33;33853;-85
2023/08/02 06:29:12;;;;;;;4.87;3.58;;;;;;;19.86;100.00;99697.25;5397625;32;33581;-85
2023/08/02 06:32:15;;;;;;;3.53;3.22;;;;;;;20.02;100.00;99699.06;5401730;33;34622;-84
2023/08/02 06:35:18;;;;;;;4.72;3.10;;;;;;;20.10;100.00;99697.81;5396180;33;33800;-85
2023/08/02 06:38:21;;;;;;;5.00;3.20;;;;;;;20.01;100.00;99699.34;5396288;32;33623;-85
2023/08/02 06:41:24;;;;;;;4.25;3.30;;;;;;;20.04;100.00;99699.66;5384124;33;33806;-85
2023/08/02 06:44:27;;;;;;;3.35;3.00;;;;;;;20.23;100.00;99715.69;5396577;32;34655;-85
2023/08/02 06:47:30;;;;;;;5.87;3.42;;;;;;;20.46;100.00;99714.56;5396566;33;33939;-85
2023/08/02 06:50:37;;;;;;;3.78;3.10;;;;;;;20.45;100.00;99721.94;5396690;33;33650;-84
2023/08/02 06:53:41;;;;;;;3.08;2.75;;;;;;;20.58;100.00;99715.22;5398109;32;33798;-84
2023/08/02 06:56:43;;;;;;;4.37;3.00;;;;;;;20.74;100.00;99717.03;5394998;33;33818;-85
2023/08/02 06:59:46;;;;;;;5.37;3.33;;;;;;;20.87;100.00;99720.41;5379160;33;33527;-85
2023/08/02 07:02:49;;;;;;;3.95;3.10;;;;;;;20.97;100.00;99710.38;5366045;33;33843;-85
2023/08/02 07:05:52;;;;;;;7.80;3.22;;;;;;;21.00;100.00;99701.63;5379281;33;33794;-85
2023/08/02 07:08:56;;;;;;;3.90;3.10;;;;;;;20.99;100.00;99705.44;5378723;33;34090;-85
2023/08/02 07:11:59;;;;;;;5.43;3.70;;;;;;;21.14;100.00;99703.87;5366360;33;33606;-84
2023/08/02 07:15:02;;;;;;;5.72;3.20;;;;;;;21.19;100.00;99715.69;5369538;33;34274;-85
2023/08/02 07:18:05;;;;;;;4.28;3.50;;;;;;;21.35;100.00;99713.03;5356209;33;33806;-84
2023/08/02 07:21:09;;;;;;;5.32;3.20;;;;;;;21.35;100.00;99716.59;5359321;33;34366;-84
2023/08/02 07:24:12;;;;;;;4.40;3.15;;;;;;;21.34;100.00;99712.22;5365938;33;34704;-83
2023/08/02 07:27:15;;;;;;;2.97;2.67;;;;;;;21.49;100.00;99717.00;5379429;33;34651;-83
2023/08/02 07:30:18;;;;;;;5.12;2.95;;;;;;;21.42;100.00;99719.97;5365994;33;34024;-83
2023/08/02 07:33:20;;;;;;;4.37;3.05;;;;;;;21.52;100.00;99716.47;5378177;33;33546;-83
2023/08/02 07:36:23;;;;;;;5.45;2.83;;;;;;;21.60;100.00;99720.63;5366956;33;33956;-87
2023/08/02 07:39:26;;;;;;;5.32;2.95;;;;;;;21.78;100.00;99719.31;5369333;33;34385;-88
2023/08/02 07:42:29;;;;;;;3.03;2.70;;;;;;;21.94;100.00;99723.78;5365447;33;33526;-88
2023/08/02 07:45:32;;;;;;;2.97;2.72;;;;;;;22.10;98.85;99719.97;5376915;33;33926;-88
2023/08/02 07:48:35;;;;;;;3.78;2.62;;;;;;;22.11;99.12;99718.03;5364996;33;33801;-84
2023/08/02 07:51:39;;;;;;;4.43;2.95;;;;;;;22.04;99.66;99715.56;5367537;33;33986;-84
2023/08/02 07:54:42;;;;;;;7.25;2.55;;;;;;;22.11;99.33;99723.53;5377711;33;34486;-84
2023/08/02 07:57:57;;;;;;;3.78;2.55;;;;;;;22.11;98.47;99721.63;5363285;33;33888;-84
2023/08/02 08:01:08;;;;;;;3.45;2.60;;;;;;;22.37;96.53;99735.41;5377565;33;34573;-83
2023/08/02 08:04:11;;;;;;;6.87;2.60;;;;;;;22.63;95.15;99725.31;5361363;33;33698;-83
2023/08/02 08:07:14;;;;;;;4.78;2.35;;;;;;;22.59;94.85;99726.97;5359140;33;33838;-83
2023/08/02 08:10:17;;;;;;;7.12;2.12;;;;;;;22.69;94.35;99720.63;5353962;33;34373;-83
2023/08/02 08:13:20;;;;;;;6.05;2.25;;;;;;;22.93;92.81;99726.41;5365676;33;34366;-83
2023/08/02 08:16:26;;;;;;;4.47;2.30;;;;;;;22.83;91.62;99717.06;5371747;33;34556;-84
2023/08/02 08:19:31;;;;;;;1.73;1.60;;;;;;;22.78;91.66;99713.50;5361256;33;34135;-84
2023/08/02 08:22:34;;;;;;;3.35;2.10;;;;;;;22.87;88.76;99715.44;5362490;33;34587;-83
2023/08/02 08:25:36;;;;;;;3.75;1.85;;;;;;;23.26;88.08;99714.03;5362301;33;33763;-83
2023/08/02 08:28:40;;;;;;;2.22;1.67;;;;;;;23.53;86.64;99716.44;5362231;33;34988;-83
2023/08/02 08:31:42;;;;;;;3.25;1.83;;;;;;;23.34;81.90;99716.19;5363586;33;34601;-83
2023/08/02 08:34:49;;;;;;;2.35;1.30;;;;;;;23.22;79.81;99719.25;5380635;33;33893;-83
2023/08/02 08:37:53;;;;;;;1.83;1.45;;;;;;;23.20;77.58;99717.91;5376840;33;35337;-83
2023/08/02 08:40:56;;;;;;;2.72;1.40;;;;;;;23.28;75.57;99717.31;5364236;33;34412;-83
2023/08/02 08:44:03;;;;;;;3.55;1.60;;;;;;;23.47;76.61;99723.06;5379162;33;32297;-83
2023/08/02 08:47:07;;;;;;;1.58;1.48;;;;;;;23.39;75.64;99718.94;5382393;33;34235;-84
2023/08/02 08:50:10;;;;;;;2.08;1.40;;;;;;;23.43;74.73;99722.78;5378634;33;33958;-83
2023/08/02 08:53:28;;;;;;;2.95;1.02;;;;;;;23.67;73.26;99725.72;5353498;33;34627;-84
2023/08/02 08:56:33;;;;;;;3.37;1.15;;;;;;;23.79;71.88;99728.19;5361785;33;33467;-84
2023/08/02 08:59:37;;;;;;;1.58;1.25;;;;;;;24.03;72.55;99731.09;5371128;33;34589;-84
2023/08/02 09:02:42;;;;;;;2.60;1.23;;;;;;;24.01;69.60;99725.03;5371904;33;34752;-84
2023/08/02 09:05:46;;;;;;;1.30;1.20;;;;;;;24.07;69.17;99721.16;5371387;33;33783;-84
2023/08/02 09:08:49;;;;;;;1.25;1.15;;;;;;;24.09;71.71;99712.63;5380046;33;33955;-84
2023/08/02 09:11:52;;;;;;;1.85;1.30;;;;;;;24.26;71.37;99707.59;5376983;33;34309;-84
2023/08/02 09:15:05;;;;;;;2.00;1.27;;;;;;;24.42;71.88;99705.53;5378086;33;33792;-84
2023/08/02 09:18:08;;;;;;;3.62;1.33;;;;;;;24.69;70.31;99705.13;5380015;33;33866;-84
2023/08/02 09:21:14;;;;;;;2.55;1.30;;;;;;;24.64;69.55;99697.72;5377401;33;33970;-84
2023/08/02 09:24:31;;;;;;;1.67;0.88;;;;;;;24.61;69.07;99700.22;5377873;33;33769;-84
2023/08/02 09:27:34;;;;;;;2.70;1.15;;;;;;;24.64;67.86;99694.97;5379279;33;33934;-84
2023/08/02 09:30:37;;;;;;;1.12;1.02;;;;;;;24.76;70.58;99696.53;5377991;33;33982;-84
2023/08/02 09:33:51;;;;;;;1.02;1.00;;;;;;;24.70;66.67;99708.69;5382962;33;34509;-84
2023/08/02 09:36:54;;;;;;;2.22;1.60;;;;;;;24.73;65.22;99703.41;5384403;33;35580;-84
2023/08/02 09:39:57;;;;;;;3.25;1.33;;;;;;;24.83;65.70;99697.00;5366235;33;33862;-84
2023/08/02 09:43:01;;;;;;;1.55;0.98;;;;;;;25.23;65.90;99695.00;5377982;33;34364;-84
2023/08/02 09:46:23;;;;;;;1.37;0.98;;;;;;;25.23;63.58;99695.00;5378820;33;34098;-84
2023/08/02 09:49:26;;;;;;;2.20;1.20;;;;;;;25.45;63.83;99694.50;5377491;33;33914;-84
2023/08/02 09:52:29;;;;;;;1.42;1.00;;;;;;;25.53;63.62;99696.56;5353792;33;35108;-84
2023/08/02 09:55:32;;;;;;;1.08;0.95;;;;;;;26.22;64.54;99695.13;5378710;33;34038;-84
2023/08/02 09:58:37;;;;;;;1.52;1.08;;;;;;;26.20;60.94;99691.84;5380183;33;35112;-84
2023/08/02 10:01:42;;;;;;;2.35;1.10;;;;;;;26.00;59.72;99697.66;5378767;33;33769;-84
2023/08/02 10:04:46;;;;;;;3.47;1.10;;;;;;;25.94;64.79;99704.37;5378329;33;33857;-84
2023/08/02 10:07:54;;;;;;;1.40;1.12;;;;;;;26.38;59.40;99698.47;5366624;33;34893;-84
2023/08/02 10:10:59;;;;;;;2.25;1.10;;;;;;;26.90;56.42;99702.06;5379697;33;33932;-84
2023/08/02 10:14:03;;;;;;;1.00;0.88;;;;;;;27.13;53.48;99697.53;5378907;33;33840;-84
2023/08/02 10:17:10;;;;;;;2.80;1.08;;;;;;;26.98;54.06;99692.28;5377619;33;33515;-84
2023/08/02 10:20:13;;;;;;;2.22;1.02;;;;;;;26.67;53.71;99700.25;5378791;33;33922;-84
2023/08/02 10:23:16;;;;;;;2.42;1.17;;;;;;;26.85;54.12;99688.37;5378604;33;33747;-84
2023/08/02 10:26:20;;;;;;;3.85;1.00;;;;;;;27.00;53.57;99698.34;5365376;33;33780;-84
2023/08/02 10:29:28;;;;;;;1.42;1.10;;;;;;;27.02;53.27;99692.50;5379204;33;34600;-84
2023/08/02 10:32:31;;;;;;;1.55;0.95;;;;;;;27.50;52.42;99693.00;5378336;33;33479;-83
2023/08/02 10:36:07;;;;;;;3.05;1.27;;;;;;;27.84;48.83;99671.56;5366321;33;33901;-84
2023/08/02 10:39:11;;;;;;;1.30;1.20;;;;;;;27.97;48.89;99681.81;5369254;33;33638;-84
2023/08/02 10:42:19;;;;;;;2.87;1.42;;;;;;;27.86;48.57;99680.37;5370046;33;33238;-84
2023/08/02 10:45:21;;;;;;;4.07;1.33;;;;;;;27.84;47.53;99679.88;5377200;33;33602;-84
2023/08/02 10:48:26;;;;;;;2.62;1.00;;;;;;;28.15;49.89;99671.72;5378623;33;34707;-84
2023/08/02 10:51:33;;;;;;;1.73;1.17;;;;;;;28.37;45.09;99673.66;5379280;33;34384;-84
2023/08/02 10:54:36;;;;;;;3.05;1.17;;;;;;;28.34;48.27;99654.91;5379270;33;34562;-84
2023/08/02 10:58:05;;;;;;;2.25;1.30;;;;;;;28.57;44.59;99664.88;5365561;33;33649;-84
2023/08/02 11:01:10;;;;;;;2.47;1.10;;;;;;;28.53;45.38;99649.25;5379043;33;34775;-84
2023/08/02 11:04:16;;;;;;;2.20;1.48;;;;;;;29.00;46.57;99664.34;5377520;33;33918;-83
2023/08/02 11:07:24;;;;;;;4.12;1.30;;;;;;;29.25;44.04;99657.31;5365450;33;33858;-84
2023/08/02 11:10:29;;;;;;;1.30;1.20;;;;;;;28.99;46.68;99657.19;5375786;33;34148;-84
2023/08/02 11:13:41;;;;;;;1.15;1.00;;;;;;;28.99;44.88;99656.34;5364998;33;34675;-84
2023/08/02 11:16:45;;;;;;;1.60;1.10;;;;;;;28.57;47.05;99645.50;5377932;33;33516;-84
2023/08/02 11:19:55;;;;;;;1.60;1.20;;;;;;;29.26;46.84;99647.88;5370289;33;33996;-84
2023/08/02 11:23:00;;;;;;;2.42;1.30;;;;;;;29.49;42.85;99645.81;5366584;33;34937;-84
2023/08/02 11:26:12;;;;;;;2.47;1.00;;;;;;;30.12;44.04;99637.28;5349862;33;34009;-84
2023/08/02 11:29:15;;;;;;;1.52;1.33;;;;;;;30.54;40.59;99632.03;5358749;33;33884;-84
2023/08/02 11:32:18;;;;;;;2.25;1.58;;;;;;;30.82;40.35;99622.19;5359942;33;34634;-83
2023/08/02 11:35:21;;;;;;;1.27;1.10;;;;;;;31.10;38.35;99627.34;5369198;33;33893;-83
2023/08/02 11:38:25;;;;;;;2.50;1.08;;;;;;;31.48;38.52;99616.22;5370795;33;34160;-83
2023/08/02 11:41:28;;;;;;;2.90;1.23;;;;;;;33.19;33.49;99601.38;5373144;33;33572;-87
2023/08/02 11:44:31;;;;;;;1.55;0.98;;;;;;;33.96;32.73;99595.84;5378294;33;34693;-87
2023/08/02 11:47:35;;;;;;;1.08;0.98;;;;;;;33.33;32.85;99595.47;5371169;33;33741;-87
2023/08/02 11:50:39;;;;;;;1.92;1.05;;;;;;;33.25;32.04;99599.97;5378087;33;34914;-88
2023/08/02 11:53:55;;;;;;;1.48;0.80;;;;;;;33.93;31.21;99596.56;5377194;33;34652;-84
2023/08/02 11:56:59;;;;;;;1.33;0.87;;;;;;;34.06;31.70;99586.16;5372121;33;33483;-83
2023/08/02 12:00:05;;;;;;;0.90;0.80;;;;;;;34.18;29.54;99585.31;5347837;33;34175;-83
2023/08/02 12:03:15;;;;;;;1.27;1.08;;;;;;;34.98;29.25;99596.28;5363130;33;34484;-83
2023/08/02 12:06:18;;;;;;;1.77;1.00;;;;;;;35.49;25.39;99595.53;5396638;33;33733;-84
2023/08/02 12:09:43;;;;;;;0.80;0.80;;;;;;;36.32;25.97;99587.72;5396298;33;33883;-83
2023/08/02 12:12:48;;;;;;;1.67;0.90;;;;;;;36.88;25.69;99574.34;5388777;33;33864;-84
2023/08/02 12:16:06;;;;;;;0.80;0.80;;;;;;;37.84;23.30;99569.41;5364781;33;33960;-83
2023/08/02 12:19:12;;;;;;;0.88;0.88;;;;;;;36.91;24.85;99570.78;5378336;33;33435;-84
2023/08/02 12:22:16;;;;;;;2.40;0.90;;;;;;;37.88;24.51;99568.28;5375599;33;34862;-83
2023/08/02 12:25:19;;;;;;;0.80;0.57;;;;;;;38.75;22.89;99570.06;5368782;33;34777;-83
2023/08/02 12:28:22;;;;;;;2.53;0.98;;;;;;;38.99;21.55;99577.94;5376527;33;33790;-84
2023/08/02 12:31:25;;;;;;;1.17;0.62;;;;;;;39.07;22.17;99578.00;5375341;33;33504;-83
2023/08/02 12:34:29;;;;;;;1.35;1.00;;;;;;;36.64;23.71;99579.13;5365406;33;33725;-83
2023/08/02 12:37:32;;;;;;;0.57;0.57;;;;;;;35.27;24.99;99583.00;5380399;33;34686;-83
2023/08/02 12:40:35;;;;;;;1.00;0.90;;;;;;;34.08;26.54;99579.06;5354303;33;34072;-84
2023/08/02 12:43:38;;;;;;;0.70;0.70;;;;;;;33.95;28.50;99574.66;5385045;33;33763;-83
2023/08/02 12:46:41;;;;;;;2.30;0.80;;;;;;;33.77;28.10;99568.53;5351921;33;33901;-83
2023/08/02 12:49:44;;;;;;;5.37;1.15;;;;;;;35.22;26.13;99586.09;5373262;33;33732;-83
2023/08/02 12:52:47;;;;;;;1.65;0.80;;;;;;;36.65;23.11;99566.75;5363985;33;33704;-83
2023/08/02 12:55:50;;;;;;;1.12;0.70;;;;;;;38.53;21.46;99561.44;5365541;33;34210;-83
2023/08/02 12:58:56;;;;;;;1.02;0.60;;;;;;;37.93;22.27;99569.91;5379012;33;33448;-84
2023/08/02 13:01:59;;;;;;;0.93;0.65;;;;;;;38.98;21.54;99567.88;5366101;33;34098;-84
2023/08/02 13:05:02;;;;;;;0.50;0.50;;;;;;;37.74;21.53;99564.47;5378218;33;34594;-84
2023/08/02 13:08:05;;;;;;;0.73;0.73;;;;;;;37.80;23.86;99569.38;5379649;33;33847;-83
2023/08/02 13:11:08;;;;;;;0.93;0.50;;;;;;;38.76;21.16;99575.31;5379290;33;33657;-84
2023/08/02 13:14:11;;;;;;;1.58;0.98;;;;;;;40.69;18.98;99569.13;5366492;33;34942;-87
2023/08/02 13:17:14;;;;;;;1.85;0.75;;;;;;;41.06;19.49;99571.59;5364207;33;33450;-88
2023/08/02 13:20:17;;;;;;;2.70;0.70;;;;;;;41.08;18.92;99557.09;5378108;33;34250;-88
2023/08/02 13:23:20;;;;;;;2.67;0.98;;;;;;;41.48;18.62;99567.13;5377965;33;33905;-85
2023/08/02 13:26:23;;;;;;;1.42;0.93;;;;;;;43.25;18.68;99554.38;5379677;33;33610;-84
2023/08/02 13:29:26;;;;;;;1.30;1.00;;;;;;;44.10;17.40;99555.44;5366712;33;35061;-84
2023/08/02 13:32:33;;;;;;;0.95;0.70;;;;;;;42.55;17.43;99549.66;5379064;33;33949;-84
2023/08/02 13:35:36;;;;;;;1.77;0.70;;;;;;;42.45;17.67;99542.06;5385609;33;33898;-84
2023/08/02 13:38:39;;;;;;;2.47;0.98;;;;;;;41.55;18.70;99541.66;5381548;33;34244;-85
2023/08/02 13:41:42;;;;;;;0.80;0.70;;;;;;;43.26;17.78;99536.16;5380279;33;34031;-85
2023/08/02 13:44:45;;;;;;;2.50;0.80;;;;;;;42.45;18.28;99532.78;5378653;33;33893;-85
2023/08/02 13:47:47;;;;;;;0.95;0.70;;;;;;;43.78;17.41;99533.12;5378775;33;34049;-85
2023/08/02 13:50:51;;;;;;;0.70;0.60;;;;;;;42.99;18.02;99530.31;5366081;33;33873;-85
2023/08/02 13:53:53;;;;;;;1.42;0.80;;;;;;;43.60;17.22;99529.75;5393158;33;33634;-85
2023/08/02 13:56:56;;;;;;;0.60;0.50;;;;;;;42.25;17.96;99526.81;5394784;33;34729;-85
2023/08/02 13:59:59;;;;;;;0.77;0.70;;;;;;;42.62;17.90;99516.88;5378170;33;34850;-85
2023/08/02 14:03:02;;;;;;;0.88;0.88;;;;;;;42.96;17.94;99502.84;5378170;33;33596;-85
2023/08/02 14:06:06;;;;;;;1.10;0.98;;;;;;;41.96;18.21;99500.72;5377665;33;33516;-85
2023/08/02 14:09:08;;;;;;;1.00;1.00;;;;;;;41.72;19.30;99500.44;5377659;33;33903;-85
2023/08/02 14:12:14;;;;;;;0.90;0.90;;;;;;;40.63;20.38;99497.37;5377691;33;33688;-85
2023/08/02 14:15:17;;;;;;;0.82;0.77;;;;;;;40.79;19.45;99494.97;5379067;33;34523;-85
2023/08/02 14:18:20;;;;;;;0.68;0.68;;;;;;;40.40;20.07;99497.72;5377400;33;33515;-83
2023/08/02 14:21:23;;;;;;;0.75;0.75;;;;;;;37.94;22.19;99490.09;5378188;33;33769;-84
2023/08/02 14:24:26;;;;;;;1.00;0.60;;;;;;;35.52;24.89;99488.41;5365409;33;33927;-84
2023/08/02 14:27:29;;;;;;;0.77;0.57;;;;;;;34.47;26.57;99487.09;5378418;33;34638;-83
2023/08/02 14:30:32;;;;;;;0.80;0.60;;;;;;;32.18;28.39;99482.87;5366097;33;33570;-84
2023/08/02 14:33:34;;;;;;;0.70;0.70;;;;;;;31.43;29.99;99476.50;5365828;33;34494;-83
2023/08/02 14:36:37;;;;;;;1.08;0.98;;;;;;;30.57;31.06;99481.34;5377793;33;33775;-83
2023/08/02 14:39:40;;;;;;;1.17;0.95;;;;;;;29.96;32.73;99474.00;5353859;33;34711;-83
2023/08/02 14:42:45;;;;;;;1.35;1.02;;;;;;;29.50;33.42;99469.94;5377865;33;33596;-84
2023/08/02 14:45:47;;;;;;;1.30;1.20;;;;;;;29.15;35.21;99460.78;5377618;33;33480;-84
2023/08/02 14:48:50;;;;;;;1.40;1.27;;;;;;;29.14;36.08;99465.50;5378000;33;33768;-83
2023/08/02 14:51:54;;;;;;;1.58;1.02;;;;;;;29.10;36.57;99458.97;5366210;33;33805;-83
2023/08/02 14:54:59;;;;;;;1.30;1.20;;;;;;;29.25;34.90;99459.63;5362837;33;33666;-83
2023/08/02 14:58:01;;;;;;;1.30;1.05;;;;;;;28.85;36.81;99456.97;5378789;33;34413;-83
2023/08/02 15:01:07;;;;;;;1.30;1.10;;;;;;;28.82;35.97;99452.06;5378407;33;33900;-84
2023/08/02 15:04:10;;;;;;;2.28;1.05;;;;;;;29.35;34.74;99459.34;5377295;33;33741;-84
2023/08/02 15:07:13;;;;;;;1.52;1.02;;;;;;;29.33;34.61;99462.41;5372520;33;161484;-84
2023/08/02 15:10:16;;;;;;;1.15;1.00;;;;;;;28.88;37.57;99470.16;5365057;33;33861;-84
2023/08/02 15:13:20;;;;;;;2.50;0.93;;;;;;;28.75;36.91;99460.81;5365175;33;34043;-83
2023/08/02 15:16:23;;;;;;;1.25;1.10;;;;;;;28.39;38.12;99447.16;5377200;33;33735;-83
2023/08/02 15:19:26;;;;;;;1.25;0.90;;;;;;;28.16;38.50;99441.66;5364488;33;34701;-83
2023/08/02 15:22:28;;;;;;;1.77;1.20;;;;;;;27.79;40.30;99440.97;5378137;33;33760;-83
2023/08/02 15:25:31;;;;;;;1.95;1.08;;;;;;;27.42;40.67;99436.59;5365810;33;33730;-83
2023/08/02 15:28:34;;;;;;;1.33;1.15;;;;;;;27.21;41.56;99429.94;5377551;33;34218;-84
2023/08/02 15:31:43;;;;;;;3.85;0.90;;;;;;;27.27;41.29;99436.97;5378849;33;35549;-83
2023/08/02 15:34:46;;;;;;;1.20;0.95;;;;;;;27.08;40.71;99439.84;5384848;33;33732;-87
2023/08/02 15:37:49;;;;;;;1.52;1.05;;;;;;;26.98;43.87;99432.59;5371327;33;35321;-88
2023/08/02 15:40:53;;;;;;;1.85;1.08;;;;;;;27.00;41.93;99432.28;5377411;33;34677;-84
2023/08/02 15:43:56;;;;;;;1.25;1.08;;;;;;;26.90;42.42;99425.03;5377266;33;33571;-84
2023/08/02 15:46:58;;;;;;;1.48;0.90;;;;;;;26.78;42.12;99420.03;5364764;33;34968;-84
2023/08/02 15:50:01;;;;;;;2.00;1.12;;;;;;;26.61;42.34;99412.38;5378098;33;34567;-84
